createdAt,value
2022-12-15T00:00:34.010Z,95619.41
2022-12-15T00:03:26.266Z,95615.69
2022-12-15T00:06:12.736Z,95628.75
2022-12-15T00:08:59.129Z,95636.53
2022-12-15T00:11:44.714Z,95634.63
2022-12-15T00:14:30.499Z,95634.59
2022-12-15T00:17:16.479Z,95631.97
2022-12-15T00:20:03.466Z,95639.72
2022-12-15T00:22:49.351Z,95641.34
2022-12-15T00:25:35.896Z,95650.19
2022-12-15T00:28:22.121Z,95652.06
2022-12-15T00:31:08.167Z,95655.56
2022-12-15T00:33:54.267Z,95656.13
2022-12-15T00:36:41.328Z,95657.97
2022-12-15T00:39:10.866Z,95650.75
2022-12-15T00:41:39.233Z,95656.94
2022-12-15T00:44:09.053Z,95654.00
2022-12-15T00:46:54.911Z,95664.69
2022-12-15T00:49:41.651Z,95662.56
2022-12-15T00:52:30.491Z,95656.66
2022-12-15T00:55:16.429Z,95675.38
2022-12-15T00:58:02.728Z,95661.22
2022-12-15T01:00:49.666Z,95667.34
2022-12-15T01:03:38.864Z,95666.84
2022-12-15T01:06:27.215Z,95669.25
2022-12-15T01:09:15.625Z,95670.56
2022-12-15T01:12:03.158Z,95679.41
2022-12-15T01:14:50.591Z,95681.00
2022-12-15T01:17:37.124Z,95689.03
2022-12-15T01:20:18.406Z,95687.16
2022-12-15T01:22:48.260Z,95695.44
2022-12-15T01:25:20.848Z,95689.84
2022-12-15T01:27:49.252Z,95691.69
2022-12-15T01:30:21.726Z,95698.94
2022-12-15T01:32:50.369Z,95697.88
2022-12-15T01:35:18.936Z,95703.75
2022-12-15T01:37:50.283Z,95708.81
2022-12-15T01:40:39.533Z,95719.81
2022-12-15T01:43:14.903Z,95725.69
2022-12-15T01:46:03.400Z,95721.38
2022-12-15T01:48:48.212Z,95731.31
2022-12-15T01:51:27.079Z,95731.31
2022-12-15T01:54:02.469Z,95733.16
2022-12-15T01:56:38.257Z,95737.16
2022-12-15T01:59:10.470Z,95737.69
2022-12-15T02:01:39.304Z,95739.84
2022-12-15T02:04:12.248Z,95735.31
2022-12-15T02:06:40.714Z,95738.78
2022-12-15T02:09:09.952Z,95737.44
2022-12-15T02:11:56.298Z,95733.69
2022-12-15T02:14:44.744Z,95728.63
2022-12-15T02:17:29.435Z,95719.53
2022-12-15T02:20:41.766Z,95736.63
2022-12-15T02:24:03.918Z,95744.91
2022-12-15T02:27:42.762Z,95758.28
2022-12-15T02:30:23.966Z,95760.69
2022-12-15T02:33:07.953Z,95769.78
2022-12-15T02:35:55.167Z,95777.28
2022-12-15T02:38:32.491Z,95777.00
2022-12-15T02:41:02.483Z,95773.28
2022-12-15T02:43:37.131Z,95774.31
2022-12-15T02:46:19.770Z,95780.19
2022-12-15T02:49:01.403Z,95783.44
2022-12-15T02:51:46.539Z,95780.47
2022-12-15T02:54:53.553Z,95773.78
2022-12-15T02:57:44.033Z,95779.94
2022-12-15T03:00:13.826Z,95785.81
2022-12-15T03:02:48.906Z,95782.88
2022-12-15T03:05:19.484Z,95780.47
2022-12-15T03:07:51.464Z,95793.56
2022-12-15T03:10:21.553Z,95790.09
2022-12-15T03:12:50.671Z,95791.94
2022-12-15T03:15:20.030Z,95798.63
2022-12-15T03:17:49.661Z,95798.91
2022-12-15T03:20:17.962Z,95798.38
2022-12-15T03:22:46.225Z,95784.47
2022-12-15T03:25:14.917Z,95789.00
2022-12-15T03:27:44.316Z,95783.13
2022-12-15T03:30:14.115Z,95796.75
2022-12-15T03:32:42.941Z,95793.03
2022-12-15T03:35:13.515Z,95802.13
2022-12-15T03:37:42.875Z,95808.81
2022-12-15T03:40:13.936Z,95817.09
2022-12-15T03:42:50.816Z,95821.06
2022-12-15T03:45:21.246Z,95823.22
2022-12-15T03:47:50.511Z,95833.13
2022-12-15T03:50:24.279Z,95832.88
2022-12-15T03:52:54.231Z,95836.91
2022-12-15T03:55:23.544Z,95825.91
2022-12-15T03:57:52.756Z,95823.50
2022-12-15T04:00:24.887Z,95824.84
2022-12-15T04:02:54.260Z,95815.75
2022-12-15T04:05:27.717Z,95821.34
2022-12-15T04:07:58.852Z,95808.50
2022-12-15T04:10:34.386Z,95802.63
2022-12-15T04:13:05.835Z,95822.97
2022-12-15T04:15:35.683Z,95825.88
2022-12-15T04:18:06.776Z,95827.78
2022-12-15T04:20:35.742Z,95845.69
2022-12-15T04:23:04.060Z,95851.84
2022-12-15T04:25:50.056Z,95861.47
2022-12-15T04:28:36.303Z,95847.53
2022-12-15T04:31:27.841Z,95844.88
2022-12-15T04:34:17.977Z,95852.09
2022-12-15T04:37:09.928Z,95842.75
2022-12-15T04:39:58.894Z,95849.41
2022-12-15T04:42:45.291Z,95840.63
2022-12-15T04:45:33.051Z,95839.78
2022-12-15T04:48:19.493Z,95852.88
2022-12-15T04:51:05.380Z,95856.13
2022-12-15T04:53:52.401Z,95851.25
2022-12-15T04:56:38.401Z,95866.25
2022-12-15T04:59:24.261Z,95864.41
2022-12-15T05:02:10.561Z,95868.94
2022-12-15T05:04:56.976Z,95874.53
2022-12-15T05:07:44.376Z,95880.44
2022-12-15T05:10:32.517Z,95866.75
2022-12-15T05:13:23.776Z,95883.06
2022-12-15T05:16:09.865Z,95890.03
2022-12-15T05:18:56.398Z,95877.22
2022-12-15T05:21:42.657Z,95866.50
2022-12-15T05:24:28.709Z,95889.50
2022-12-15T05:27:15.869Z,95884.44
2022-12-15T05:30:02.478Z,95873.72
2022-12-15T05:32:33.942Z,95893.22
2022-12-15T05:35:02.562Z,95892.72
2022-12-15T05:37:30.891Z,95902.88
2022-12-15T05:39:59.206Z,95903.66
2022-12-15T05:42:28.933Z,95893.50
2022-12-15T05:44:57.556Z,95906.06
2022-12-15T05:47:26.386Z,95925.56
2022-12-15T05:49:54.973Z,95926.38
2022-12-15T05:52:23.642Z,95920.19
2022-12-15T05:54:51.901Z,95927.41
2022-12-15T05:57:24.350Z,95917.75
2022-12-15T05:59:54.325Z,95927.66
2022-12-15T06:02:23.006Z,95922.28
2022-12-15T06:04:51.753Z,95924.69
2022-12-15T06:07:22.423Z,95927.13
2022-12-15T06:09:51.406Z,95940.53
2022-12-15T06:12:20.039Z,95935.19
2022-12-15T06:14:49.974Z,95936.75
2022-12-15T06:17:19.737Z,95935.72
2022-12-15T06:19:48.103Z,95942.94
2022-12-15T06:22:16.577Z,95937.88
2022-12-15T06:24:45.180Z,95942.13
2022-12-15T06:27:13.794Z,95947.22
2022-12-15T06:29:42.184Z,95945.09
2022-12-15T06:32:10.828Z,95953.38
2022-12-15T06:34:41.398Z,95958.44
2022-12-15T06:37:09.985Z,95956.84
2022-12-15T06:39:38.679Z,95954.94
2022-12-15T06:42:07.398Z,95958.47
2022-12-15T06:44:36.793Z,95952.81
2022-12-15T06:47:05.616Z,95960.06
2022-12-15T06:49:34.374Z,95957.69
2022-12-15T06:52:04.068Z,95968.91
2022-12-15T06:54:32.713Z,95961.41
2022-12-15T06:57:01.050Z,95953.38
2022-12-15T06:59:29.696Z,95952.31
2022-12-15T07:01:58.671Z,95948.31
2022-12-15T07:04:27.719Z,95954.19
2022-12-15T07:06:57.872Z,95955.78
2022-12-15T07:09:28.399Z,95956.31
2022-12-15T07:11:56.677Z,95958.22
2022-12-15T07:14:25.932Z,95939.78
2022-12-15T07:16:54.619Z,95956.59
2022-12-15T07:19:23.182Z,95947.00
2022-12-15T07:21:52.894Z,95949.13
2022-12-15T07:24:21.233Z,95958.50
2022-12-15T07:26:51.173Z,95969.47
2022-12-15T07:29:23.511Z,95985.84
2022-12-15T07:31:53.373Z,95992.50
2022-12-15T07:34:22.664Z,95981.28
2022-12-15T07:36:52.607Z,95978.91
2022-12-15T07:39:21.544Z,95991.75
2022-12-15T07:41:51.249Z,95989.09
2022-12-15T07:44:19.866Z,95991.50
2022-12-15T07:46:49.359Z,95990.97
2022-12-15T07:49:18.086Z,95988.56
2022-12-15T07:51:46.747Z,95999.53
2022-12-15T07:54:16.286Z,95984.31
2022-12-15T07:56:45.029Z,95987.25
2022-12-15T07:59:20.721Z,95992.09
2022-12-15T08:01:49.762Z,95997.72
2022-12-15T08:04:18.856Z,96007.63
2022-12-15T08:06:47.482Z,96015.66
2022-12-15T08:09:16.116Z,96019.13
2022-12-15T08:11:44.408Z,96023.19
2022-12-15T08:14:17.377Z,96010.06
2022-12-15T08:16:48.005Z,96007.13
2022-12-15T08:19:17.960Z,95998.81
2022-12-15T08:21:47.967Z,96001.53
2022-12-15T08:24:17.177Z,96022.41
2022-12-15T08:26:49.975Z,96024.56
2022-12-15T08:32:09.951Z,96043.31
2022-12-15T08:34:39.352Z,96045.75
2022-12-15T08:37:07.941Z,96040.69
2022-12-15T08:39:36.553Z,96046.31
2022-12-15T08:42:05.404Z,96045.50
2022-12-15T08:44:33.990Z,96046.88
2022-12-15T08:47:02.621Z,96049.28
2022-12-15T08:49:32.315Z,96046.34
2022-12-15T08:52:00.901Z,96048.97
2022-12-15T08:54:29.527Z,96040.97
2022-12-15T08:56:57.769Z,96041.50
2022-12-15T08:59:26.311Z,96046.88
2022-12-15T09:01:55.032Z,96060.50
2022-12-15T09:04:24.044Z,96066.41
2022-12-15T09:06:53.859Z,96077.91
2022-12-15T09:09:22.560Z,96078.47
2022-12-15T09:11:51.227Z,96076.28
2022-12-15T09:14:27.087Z,96076.03
2022-12-15T09:16:57.751Z,96059.09
2022-12-15T09:19:26.585Z,96060.63
2022-12-15T09:21:56.284Z,96061.16
2022-12-15T09:24:34.349Z,96059.41
2022-12-15T09:27:04.649Z,96047.50
2022-12-15T09:29:34.060Z,96043.97
2022-12-15T09:32:06.559Z,96044.50
2022-12-15T09:34:38.118Z,96038.31
2022-12-15T09:37:07.822Z,96031.94
2022-12-15T09:39:37.511Z,96040.88
2022-12-15T09:42:06.220Z,96021.75
2022-12-15T09:44:35.205Z,96009.41
2022-12-15T09:47:13.924Z,96029.13
2022-12-15T09:49:56.615Z,96016.97
2022-12-15T09:52:31.250Z,96027.47
2022-12-15T09:55:01.801Z,96013.88
2022-12-15T09:57:45.438Z,96003.03
2022-12-15T10:00:22.453Z,96015.69
2022-12-15T10:03:22.993Z,96009.44
2022-12-15T10:06:20.028Z,96017.41
2022-12-15T10:08:57.157Z,96008.56
2022-12-15T10:11:55.766Z,96005.38
2022-12-15T10:14:34.172Z,95995.34
2022-12-15T10:17:21.390Z,95996.47
2022-12-15T10:20:03.914Z,95994.09
2022-12-15T10:22:37.715Z,95986.56
2022-12-15T10:25:25.341Z,95990.94
2022-12-15T10:28:25.507Z,95992.66
2022-12-15T10:31:01.263Z,95987.53
2022-12-15T10:33:36.393Z,95995.03
2022-12-15T10:36:12.452Z,95991.50
2022-12-15T10:38:46.214Z,96005.97
2022-12-15T10:41:23.593Z,96000.53
2022-12-15T10:46:47.003Z,95996.75
2022-12-15T10:49:26.559Z,96001.00
2022-12-15T10:52:00.184Z,95994.09
2022-12-15T10:54:35.792Z,95993.75
2022-12-15T10:57:21.023Z,95987.34
2022-12-15T10:59:50.375Z,95983.91
2022-12-15T11:02:34.766Z,95979.53
2022-12-15T11:05:06.652Z,95987.66
2022-12-15T11:07:39.771Z,95988.72
2022-12-15T11:10:21.201Z,95995.94
2022-12-15T11:13:10.568Z,95991.38
2022-12-15T11:15:43.265Z,95993.16
2022-12-15T11:18:24.422Z,95990.81
2022-12-15T11:21:01.727Z,95983.53
2022-12-15T11:23:50.278Z,95984.78
2022-12-15T11:26:33.142Z,95976.66
2022-12-15T11:29:11.196Z,95970.19
2022-12-15T11:31:44.443Z,95958.91
2022-12-15T11:34:16.029Z,95954.41
2022-12-15T11:37:02.566Z,95955.53
2022-12-15T11:39:54.768Z,95941.72
2022-12-15T11:42:35.994Z,95926.50
2022-12-15T11:45:19.812Z,95908.09
2022-12-15T11:47:53.434Z,95916.16
2022-12-15T11:50:31.832Z,95940.31
2022-12-15T11:53:19.735Z,95946.78
2022-12-15T11:55:58.849Z,95941.44
2022-12-15T11:58:51.809Z,95949.59
2022-12-15T12:01:57.052Z,95959.13
2022-12-15T12:04:35.512Z,95964.50
2022-12-15T12:07:16.830Z,95951.75
2022-12-15T12:10:04.223Z,95947.41
2022-12-15T12:12:44.912Z,95934.41
2022-12-15T12:15:31.141Z,95936.38
2022-12-15T12:18:12.761Z,95930.03
2022-12-15T12:20:50.333Z,95921.31
2022-12-15T12:23:28.742Z,95923.56
2022-12-15T12:26:07.408Z,95931.16
2022-12-15T12:28:46.670Z,95919.34
2022-12-15T12:31:32.389Z,95928.19
2022-12-15T12:34:13.474Z,95932.44
2022-12-15T12:36:44.965Z,95929.56
2022-12-15T12:39:24.408Z,95937.72
2022-12-15T12:42:06.612Z,95931.81
2022-12-15T12:44:38.620Z,95928.09
2022-12-15T12:47:17.313Z,95931.06
2022-12-15T12:49:51.414Z,95919.28
2022-12-15T12:52:28.499Z,95911.75
2022-12-15T12:55:03.201Z,95907.44
2022-12-15T12:57:41.444Z,95891.84
2022-12-15T13:00:20.654Z,95869.94
2022-12-15T13:03:14.148Z,95865.69
2022-12-15T13:05:46.679Z,95857.63
2022-12-15T13:12:14.861Z,95843.00
2022-12-15T13:14:51.948Z,95841.25
2022-12-15T13:17:33.813Z,95838.34
2022-12-15T13:20:30.973Z,95840.56
2022-12-15T13:23:41.366Z,95835.88
2022-12-15T13:26:20.543Z,95843.59
2022-12-15T13:28:58.818Z,95838.97
2022-12-15T13:31:41.837Z,95831.31
2022-12-15T13:34:39.470Z,95831.38
2022-12-15T13:37:46.718Z,95839.22
2022-12-15T13:40:51.848Z,95829.69
2022-12-15T13:43:43.670Z,95847.78
2022-12-15T13:46:17.909Z,95852.34
2022-12-15T13:48:49.320Z,95858.19
2022-12-15T13:51:39.094Z,95854.66
2022-12-15T13:54:18.007Z,95857.63
2022-12-15T13:56:56.217Z,95851.25
2022-12-15T13:59:38.323Z,95854.72
2022-12-15T14:02:26.511Z,95859.06
2022-12-15T14:05:14.357Z,95854.25
2022-12-15T14:07:54.135Z,95846.16
2022-12-15T14:10:28.551Z,95841.25
2022-12-15T14:13:15.095Z,95845.97
2022-12-15T14:15:47.343Z,95824.81
2022-12-15T14:18:30.350Z,95822.41
2022-12-15T14:20:59.245Z,95820.63
2022-12-15T14:23:30.449Z,95824.88
2022-12-15T14:26:07.353Z,95816.88
2022-12-15T14:28:39.373Z,95818.44
2022-12-15T14:31:15.511Z,95816.88
2022-12-15T14:33:50.689Z,95814.78
2022-12-15T14:36:21.967Z,95808.94
2022-12-15T14:38:55.085Z,95799.25
2022-12-15T14:41:28.557Z,95790.75
2022-12-15T14:44:31.416Z,95777.34
2022-12-15T14:46:52.799Z,95785.13
2022-12-15T14:49:29.585Z,95778.47
2022-12-15T14:52:05.082Z,95777.44
2022-12-15T14:54:37.506Z,95792.75
2022-12-15T14:57:16.734Z,95781.78
2022-12-15T14:59:51.252Z,95787.09
2022-12-15T15:02:24.894Z,95787.34
2022-12-15T15:03:11.640Z,96004.47
2022-12-15T15:03:12.903Z,95845.97
2022-12-15T15:05:03.244Z,95782.22
2022-12-15T15:07:33.463Z,95780.09
2022-12-15T15:10:04.265Z,95782.00
2022-12-15T15:12:45.508Z,95781.47
2022-12-15T15:15:19.792Z,95783.91
2022-12-15T15:17:53.692Z,95795.97
2022-12-15T15:20:28.557Z,95791.41
2022-12-15T15:23:19.463Z,95798.16
2022-12-15T15:25:53.956Z,95807.03
2022-12-15T15:28:26.587Z,95812.09
2022-12-15T15:31:00.553Z,95815.03
2022-12-15T15:33:30.387Z,95812.34
2022-12-15T15:36:01.048Z,95821.75
2022-12-15T15:38:33.600Z,95818.81
2022-12-15T15:41:16.817Z,95817.25
2022-12-15T15:43:45.674Z,95813.00
2022-12-15T15:46:20.309Z,95810.06
2022-12-15T15:48:53.958Z,95804.69
2022-12-15T15:51:24.797Z,95807.66
2022-12-15T15:53:54.689Z,95803.09
2022-12-15T15:56:23.621Z,95795.63
2022-12-15T15:58:51.965Z,95791.84
2022-12-15T16:01:21.880Z,95802.59
2022-12-15T16:03:50.651Z,95792.16
2022-12-15T16:06:24.187Z,95795.94
2022-12-15T16:08:54.818Z,95806.94
2022-12-15T16:11:25.508Z,95794.63
2022-12-15T16:13:53.840Z,95784.19
2022-12-15T16:16:31.346Z,95793.31
2022-12-15T16:19:00.029Z,95780.19
2022-12-15T16:21:29.084Z,95783.13
2022-12-15T16:23:59.789Z,95774.84
2022-12-15T16:26:33.313Z,95771.38
2022-12-15T16:29:01.864Z,95770.03
2022-12-15T16:31:41.358Z,95764.44
2022-12-15T16:34:10.710Z,95762.81
2022-12-15T16:36:39.390Z,95767.94
2022-12-15T16:39:25.383Z,95762.31
2022-12-15T16:41:56.273Z,95766.63
2022-12-15T16:44:26.542Z,95759.63
2022-12-15T16:46:56.992Z,95761.81
2022-12-15T16:49:25.685Z,95767.69
2022-12-15T16:51:54.959Z,95774.09
2022-12-15T16:54:28.532Z,95770.88
2022-12-15T16:57:00.478Z,95765.75
2022-12-15T16:59:33.944Z,95766.88
2022-12-15T17:02:23.943Z,95762.56
2022-12-15T17:04:55.063Z,95764.22
2022-12-15T17:07:25.163Z,95761.56
2022-12-15T17:09:53.941Z,95766.63
2022-12-15T17:12:22.367Z,95764.75
2022-12-15T17:14:50.786Z,95768.22
2022-12-15T17:17:21.252Z,95761.25
2022-12-15T17:20:27.523Z,95773.34
2022-12-15T17:22:39.266Z,95758.31
2022-12-15T17:25:17.336Z,95744.69
2022-12-15T17:27:47.036Z,95757.81
2022-12-15T17:30:17.326Z,95763.72
2022-12-15T17:32:48.308Z,95759.44
2022-12-15T17:35:17.585Z,95750.03
2022-12-15T17:37:46.820Z,95750.84
2022-12-15T17:40:21.976Z,95741.75
2022-12-15T17:42:51.439Z,95735.84
2022-12-15T17:45:24.373Z,95731.06
2022-12-15T17:47:54.683Z,95724.91
2022-12-15T17:50:23.330Z,95725.16
2022-12-15T17:52:51.755Z,95713.09
2022-12-15T17:55:29.049Z,95721.91
2022-12-15T17:58:00.778Z,95705.84
2022-12-15T18:00:32.060Z,95702.91
2022-12-15T18:03:02.345Z,95708.22
2022-12-15T18:05:32.330Z,95707.41
2022-12-15T18:08:15.564Z,95702.03
2022-12-15T18:10:45.723Z,95699.59
2022-12-15T18:13:20.425Z,95691.56
2022-12-15T18:15:49.549Z,95693.16
2022-12-15T18:18:22.222Z,95685.38
2022-12-15T18:20:52.061Z,95692.31
2022-12-15T18:23:26.323Z,95693.66
2022-12-15T18:25:59.672Z,95685.56
2022-12-15T18:28:33.258Z,95686.38
2022-12-15T18:31:21.351Z,95689.84
2022-12-15T18:33:51.171Z,95684.25
2022-12-15T18:36:20.712Z,95687.72
2022-12-15T18:38:49.750Z,95681.84
2022-12-15T18:41:21.117Z,95676.47
2022-12-15T18:43:58.606Z,95673.75
2022-12-15T18:46:28.236Z,95678.56
2022-12-15T18:49:00.288Z,95674.50
2022-12-15T18:51:30.768Z,95679.31
2022-12-15T18:53:59.141Z,95680.66
2022-12-15T18:56:27.733Z,95671.22
2022-12-15T18:58:56.263Z,95662.41
2022-12-15T19:01:25.018Z,95656.47
2022-12-15T19:03:53.972Z,95657.03
2022-12-15T19:06:34.809Z,95669.38
2022-12-15T19:09:03.937Z,95661.03
2022-12-15T19:11:33.089Z,95665.03
2022-12-15T19:14:04.102Z,95656.47
2022-12-15T19:16:52.937Z,95652.72
2022-12-15T19:19:39.287Z,95656.19
2022-12-15T19:22:28.029Z,95648.94
2022-12-15T19:24:57.088Z,95648.94
2022-12-15T19:27:27.466Z,95634.97
2022-12-15T19:29:56.579Z,95637.66
2022-12-15T19:32:26.768Z,95636.03
2022-12-15T19:34:55.553Z,95630.94
2022-12-15T19:37:28.539Z,95638.19
2022-12-15T19:39:58.956Z,95631.22
2022-12-15T19:42:33.392Z,95625.31
2022-12-15T19:45:02.647Z,95619.41
2022-12-15T19:47:31.306Z,95614.31
2022-12-15T19:49:59.730Z,95615.38
2022-12-15T19:52:29.827Z,95617.81
2022-12-15T19:54:58.679Z,95618.34
2022-12-15T19:57:27.558Z,95618.84
2022-12-15T19:59:56.052Z,95610.81
2022-12-15T20:02:24.567Z,95606.53
2022-12-15T20:04:53.050Z,95599.00
2022-12-15T20:07:30.415Z,95614.31
2022-12-15T20:09:59.022Z,95618.50
2022-12-15T20:12:27.589Z,95608.03
2022-12-15T20:14:56.632Z,95604.81
2022-12-15T20:17:25.119Z,95616.41
2022-12-15T20:19:53.524Z,95603.81
2022-12-15T20:22:21.971Z,95596.28
2022-12-15T20:24:51.796Z,95598.94
2022-12-15T20:27:21.200Z,95598.44
2022-12-15T20:29:49.632Z,95586.91
2022-12-15T20:32:21.815Z,95584.75
2022-12-15T20:34:50.517Z,95574.81
2022-12-15T20:37:24.263Z,95578.06
2022-12-15T20:39:57.712Z,95572.09
2022-12-15T20:42:26.940Z,95580.19
2022-12-15T20:44:55.710Z,95578.53
2022-12-15T20:47:27.696Z,95572.09
2022-12-15T20:49:56.762Z,95569.41
2022-12-15T20:52:28.029Z,95570.19
2022-12-15T20:54:58.032Z,95565.59
2022-12-15T20:57:26.800Z,95568.03
2022-12-15T20:59:55.742Z,95563.19
2022-12-15T21:02:25.802Z,95568.63
2022-12-15T21:04:55.208Z,95558.38
2022-12-15T21:07:23.663Z,95554.34
2022-12-15T21:09:52.066Z,95554.06
2022-12-15T21:12:26.439Z,95552.19
2022-12-15T21:14:55.552Z,95546.03
2022-12-15T21:17:27.011Z,95551.41
2022-12-15T21:19:55.621Z,95544.25
2022-12-15T21:22:27.629Z,95540.19
2022-12-15T21:25:00.417Z,95535.28
2022-12-15T21:27:30.179Z,95521.88
2022-12-15T21:29:58.535Z,95524.28
2022-12-15T21:32:26.885Z,95521.06
2022-12-15T21:34:55.572Z,95528.09
2022-12-15T21:37:29.705Z,95507.16
2022-12-15T21:40:00.487Z,95510.41
2022-12-15T21:42:37.501Z,95515.19
2022-12-15T21:45:13.677Z,95506.66
2022-12-15T21:47:59.344Z,95501.78
2022-12-15T21:50:28.160Z,95500.47
2022-12-15T21:52:57.244Z,95497.22
2022-12-15T21:55:28.914Z,95507.50
2022-12-15T21:57:59.289Z,95498.59
2022-12-15T22:00:28.143Z,95502.06
2022-12-15T22:02:57.016Z,95503.75
2022-12-15T22:05:30.271Z,95502.91
2022-12-15T22:08:02.690Z,95503.53
2022-12-15T22:10:31.212Z,95513.31
2022-12-15T22:13:01.075Z,95512.22
2022-12-15T22:15:30.758Z,95517.84
2022-12-15T22:17:59.600Z,95514.44
2022-12-15T22:20:28.004Z,95520.59
2022-12-15T22:22:56.574Z,95517.13
2022-12-15T22:25:26.889Z,95519.75
2022-12-15T22:27:55.588Z,95518.97
2022-12-15T22:30:27.978Z,95515.69
2022-12-15T22:32:56.588Z,95514.09
2022-12-15T22:35:27.659Z,95516.59
2022-12-15T22:37:56.461Z,95519.38
2022-12-15T22:40:26.238Z,95519.66
2022-12-15T22:42:58.858Z,95517.25
2022-12-15T22:45:29.137Z,95515.13
2022-12-15T22:47:57.869Z,95519.97
2022-12-15T22:50:27.955Z,95514.41
2022-12-15T22:52:56.315Z,95521.38
2022-12-15T22:55:25.426Z,95516.03
2022-12-15T22:58:00.784Z,95522.19
2022-12-15T23:00:30.785Z,95529.25
2022-12-15T23:02:59.825Z,95526.31
2022-12-15T23:05:28.367Z,95522.88
2022-12-15T23:07:57.067Z,95525.03
2022-12-15T23:10:43.143Z,95520.25
2022-12-15T23:13:11.504Z,95518.91
2022-12-15T23:15:58.696Z,95518.56
2022-12-15T23:18:27.385Z,95518.91
2022-12-15T23:20:56.507Z,95513.50
2022-12-15T23:23:25.938Z,95511.59
2022-12-15T23:25:54.878Z,95514.22
2022-12-15T23:28:23.437Z,95513.22
2022-12-15T23:30:54.502Z,95507.63
2022-12-15T23:33:24.889Z,95506.28
2022-12-15T23:35:54.991Z,95507.97
2022-12-15T23:38:23.822Z,95497.13
2022-12-15T23:40:54.738Z,95503.84
2022-12-15T23:43:24.981Z,95511.66
2022-12-15T23:46:00.289Z,95500.69
2022-12-15T23:48:32.583Z,95498.81
2022-12-15T23:51:06.883Z,95502.03
2022-12-15T23:53:35.611Z,95503.66
2022-12-15T23:56:11.312Z,95505.28
2022-12-15T23:58:41.367Z,95501.50
